createdAt,value
2023-01-03T00:01:52.454Z,4.00
2023-01-03T00:03:56.138Z,3.65
2023-01-03T00:05:57.668Z,3.38
2023-01-03T00:07:59.115Z,4.18
2023-01-03T00:10:08.315Z,3.83
2023-01-03T00:12:30.425Z,4.07
2023-01-03T00:14:35.545Z,4.07
2023-01-03T00:16:37.145Z,4.70
2023-01-03T00:18:38.617Z,3.80
2023-01-03T00:20:40.077Z,3.90
2023-01-03T00:22:41.591Z,3.42
2023-01-03T00:24:44.485Z,3.78
2023-01-03T00:26:46.495Z,4.28
2023-01-03T00:28:47.933Z,3.67
2023-01-03T00:30:49.470Z,3.95
2023-01-03T00:32:50.980Z,3.85
2023-01-03T00:34:52.550Z,4.25
2023-01-03T00:36:54.573Z,4.72
2023-01-03T00:38:56.657Z,4.20
2023-01-03T00:41:09.992Z,4.60
2023-01-03T00:43:29.421Z,4.93
2023-01-03T00:45:35.055Z,4.05
2023-01-03T00:47:37.037Z,4.13
2023-01-03T00:49:38.493Z,4.35
2023-01-03T00:51:41.640Z,4.00
2023-01-03T00:53:45.651Z,3.92
2023-01-03T00:55:47.460Z,3.80
2023-01-03T00:57:48.910Z,3.92
2023-01-03T00:59:50.470Z,4.78
2023-01-03T01:01:54.214Z,3.65
2023-01-03T01:04:03.087Z,4.10
2023-01-03T01:08:16.476Z,4.38
2023-01-03T01:10:19.616Z,4.00
2023-01-03T01:12:21.091Z,4.30
2023-01-03T01:14:24.673Z,4.53
2023-01-03T01:16:30.097Z,3.72
2023-01-03T01:18:32.022Z,4.55
2023-01-03T01:20:33.465Z,4.35
2023-01-03T01:22:35.250Z,4.03
2023-01-03T01:24:36.792Z,4.15
2023-01-03T01:26:38.707Z,4.47
2023-01-03T01:28:40.443Z,4.15
2023-01-03T01:30:42.100Z,4.50
2023-01-03T01:32:43.620Z,4.68
2023-01-03T01:34:45.109Z,4.95
2023-01-03T01:36:47.329Z,4.53
2023-01-03T01:38:59.872Z,4.30
2023-01-03T01:41:01.842Z,4.80
2023-01-03T01:43:39.278Z,4.70
2023-01-03T01:45:40.855Z,4.40
2023-01-03T01:47:53.513Z,4.15
2023-01-03T01:50:01.312Z,4.45
2023-01-03T01:52:03.469Z,4.43
2023-01-03T01:54:06.939Z,3.95
2023-01-03T01:56:18.960Z,4.55
2023-01-03T01:58:23.009Z,4.57
2023-01-03T02:00:24.474Z,5.60
2023-01-03T02:02:27.416Z,5.88
2023-01-03T02:04:33.865Z,4.85
2023-01-03T02:06:35.606Z,4.25
2023-01-03T02:08:37.402Z,4.68
2023-01-03T02:10:44.783Z,4.88
2023-01-03T02:13:18.942Z,4.60
2023-01-03T02:15:32.771Z,5.30
2023-01-03T02:17:46.173Z,4.82
2023-01-03T02:19:53.588Z,5.15
2023-01-03T02:22:15.413Z,5.82
2023-01-03T02:24:54.599Z,5.00
2023-01-03T02:27:28.229Z,5.50
2023-01-03T02:29:54.349Z,5.00
2023-01-03T02:32:17.763Z,4.53
2023-01-03T02:34:34.563Z,5.60
2023-01-03T02:36:56.931Z,5.50
2023-01-03T02:38:58.347Z,4.68
2023-01-03T02:41:38.243Z,5.10
2023-01-03T02:44:22.735Z,4.82
2023-01-03T02:46:54.477Z,4.75
2023-01-03T02:49:02.089Z,5.90
2023-01-03T02:51:08.690Z,6.43
2023-01-03T02:53:15.175Z,5.90
2023-01-03T02:55:21.747Z,5.80
2023-01-03T02:57:39.371Z,5.90
2023-01-03T02:59:49.453Z,5.97
2023-01-03T03:01:52.585Z,6.03
2023-01-03T03:03:56.874Z,6.15
2023-01-03T03:06:10.463Z,5.78
2023-01-03T03:08:11.975Z,6.93
2023-01-03T03:10:32.281Z,5.88
2023-01-03T03:12:55.753Z,7.20
2023-01-03T03:14:58.602Z,6.68
2023-01-03T03:17:05.691Z,5.85
2023-01-03T03:19:39.581Z,6.22
2023-01-03T03:21:59.969Z,6.43
2023-01-03T03:24:30.468Z,6.00
2023-01-03T03:26:39.001Z,6.30
2023-01-03T03:28:44.353Z,6.47
2023-01-03T03:30:50.381Z,6.35
2023-01-03T03:32:55.963Z,6.95
2023-01-03T03:34:59.557Z,5.72
2023-01-03T03:37:16.807Z,6.65
2023-01-03T03:39:37.349Z,6.55
2023-01-03T03:42:12.899Z,5.95
2023-01-03T03:44:44.650Z,6.55
2023-01-03T03:46:55.105Z,6.22
2023-01-03T03:49:24.139Z,6.13
2023-01-03T03:51:31.260Z,6.65
2023-01-03T03:53:35.547Z,6.30
2023-01-03T03:55:41.637Z,6.72
2023-01-03T03:57:55.771Z,6.45
2023-01-03T04:00:05.293Z,6.47
2023-01-03T04:02:08.643Z,6.28
2023-01-03T04:04:15.513Z,6.07
2023-01-03T04:06:28.239Z,6.20
2023-01-03T04:08:29.872Z,6.05
2023-01-03T04:10:37.202Z,6.97
2023-01-03T04:12:39.194Z,6.80
2023-01-03T04:14:40.722Z,6.85
2023-01-03T04:16:42.296Z,6.97
2023-01-03T04:18:43.811Z,6.72
2023-01-03T04:20:45.274Z,6.07
2023-01-03T04:22:46.812Z,6.13
2023-01-03T04:24:48.291Z,6.38
2023-01-03T04:26:49.847Z,6.18
2023-01-03T04:28:51.312Z,5.55
2023-01-03T04:30:52.812Z,5.75
2023-01-03T04:32:54.270Z,5.28
2023-01-03T04:34:55.780Z,5.65
2023-01-03T04:36:57.318Z,5.57
2023-01-03T04:38:58.797Z,4.82
2023-01-03T04:41:08.296Z,4.93
2023-01-03T04:43:49.285Z,5.55
2023-01-03T04:45:51.212Z,5.75
2023-01-03T04:47:53.377Z,5.85
2023-01-03T04:49:54.820Z,5.60
2023-01-03T04:51:56.259Z,5.22
2023-01-03T04:53:57.858Z,5.10
2023-01-03T04:55:59.395Z,6.10
2023-01-03T04:58:01.104Z,5.90
2023-01-03T05:00:02.791Z,5.05
2023-01-03T05:02:04.724Z,4.90
2023-01-03T05:04:06.387Z,5.20
2023-01-03T05:06:09.219Z,5.28
2023-01-03T05:08:12.321Z,5.88
2023-01-03T05:10:13.911Z,6.10
2023-01-03T05:12:15.433Z,6.05
2023-01-03T05:14:16.926Z,5.68
2023-01-03T05:16:18.447Z,6.10
2023-01-03T05:18:20.003Z,6.80
2023-01-03T05:20:41.127Z,7.03
2023-01-03T05:23:01.080Z,7.13
2023-01-03T05:25:21.055Z,5.60
2023-01-03T05:27:22.747Z,8.60
2023-01-03T05:29:24.284Z,6.50
2023-01-03T05:31:25.807Z,6.22
2023-01-03T05:33:28.192Z,6.30
2023-01-03T05:35:29.648Z,6.20
2023-01-03T05:37:31.142Z,6.55
2023-01-03T05:39:32.589Z,7.05
2023-01-03T05:41:52.373Z,7.55
2023-01-03T05:43:53.820Z,7.60
2023-01-03T05:45:55.319Z,7.63
2023-01-03T05:47:57.509Z,6.85
2023-01-03T05:49:58.957Z,7.28
2023-01-03T05:52:00.441Z,8.43
2023-01-03T05:54:01.978Z,7.70
2023-01-03T05:56:06.988Z,7.85
2023-01-03T05:58:09.978Z,7.47
2023-01-03T06:00:12.235Z,8.80
2023-01-03T06:02:13.806Z,7.68
2023-01-03T06:04:15.440Z,8.82
2023-01-03T06:06:17.140Z,8.20
2023-01-03T06:08:18.662Z,9.77
2023-01-03T06:10:20.164Z,8.63
2023-01-03T06:12:21.714Z,8.40
2023-01-03T06:14:23.187Z,7.80
2023-01-03T06:16:43.872Z,8.68
2023-01-03T06:18:45.477Z,8.65
2023-01-03T06:20:46.968Z,9.55
2023-01-03T06:22:48.561Z,8.82
2023-01-03T06:24:50.077Z,8.15
2023-01-03T06:26:51.535Z,8.57
2023-01-03T06:28:53.291Z,8.68
2023-01-03T06:30:55.473Z,8.02
2023-01-03T06:32:56.975Z,10.27
2023-01-03T06:34:58.423Z,9.27
2023-01-03T06:36:59.889Z,10.23
2023-01-03T06:39:01.472Z,10.60
2023-01-03T06:41:03.783Z,10.90
2023-01-03T06:43:05.341Z,10.93
2023-01-03T06:45:25.863Z,11.30
2023-01-03T06:47:45.972Z,11.38
2023-01-03T06:50:05.662Z,11.55
2023-01-03T06:52:32.765Z,11.98
2023-01-03T06:54:36.685Z,12.13
2023-01-03T06:56:38.136Z,12.27
2023-01-03T06:58:39.618Z,12.15
2023-01-03T07:00:44.217Z,12.73
2023-01-03T07:02:45.751Z,12.32
2023-01-03T07:04:47.319Z,12.95
2023-01-03T07:06:48.910Z,13.20
2023-01-03T07:08:51.436Z,13.40
2023-01-03T07:10:54.521Z,12.85
2023-01-03T07:13:14.594Z,13.35
2023-01-03T07:15:16.036Z,14.25
2023-01-03T07:17:17.999Z,13.45
2023-01-03T07:19:20.081Z,13.23
2023-01-03T07:21:25.968Z,14.13
2023-01-03T07:23:27.453Z,14.38
2023-01-03T07:25:28.950Z,13.45
2023-01-03T07:27:30.401Z,13.57
2023-01-03T07:29:31.904Z,15.40
2023-01-03T07:31:34.628Z,13.82
2023-01-03T07:33:39.083Z,15.27
2023-01-03T07:35:40.729Z,15.88
2023-01-03T07:37:42.218Z,16.48
2023-01-03T07:39:43.697Z,17.00
2023-01-03T07:42:03.653Z,16.33
2023-01-03T07:44:05.121Z,17.30
2023-01-03T07:46:24.204Z,16.95
2023-01-03T07:48:25.765Z,16.77
2023-01-03T07:50:27.234Z,17.30
2023-01-03T07:52:28.726Z,18.35
2023-01-03T07:54:30.232Z,18.05
2023-01-03T07:56:31.752Z,18.50
2023-01-03T07:58:33.724Z,17.65
2023-01-03T08:00:35.216Z,17.83
2023-01-03T08:02:36.743Z,20.48
2023-01-03T08:04:38.345Z,18.27
2023-01-03T08:06:40.330Z,17.80
2023-01-03T08:08:42.625Z,17.67
2023-01-03T08:11:02.584Z,17.95
2023-01-03T08:13:19.914Z,17.55
2023-01-03T08:15:21.921Z,17.60
2023-01-03T08:17:23.356Z,17.33
2023-01-03T08:19:25.325Z,17.80
2023-01-03T08:21:26.768Z,17.65
2023-01-03T08:23:30.064Z,17.17
2023-01-03T08:25:31.599Z,17.40
2023-01-03T08:27:33.060Z,17.40
2023-01-03T08:29:34.549Z,17.40
2023-01-03T08:31:40.477Z,17.88
2023-01-03T08:33:48.988Z,16.80
2023-01-03T08:35:58.253Z,16.58
2023-01-03T08:38:04.374Z,17.15
2023-01-03T08:40:06.553Z,17.73
2023-01-03T08:42:09.766Z,16.98
2023-01-03T08:44:11.960Z,18.13
2023-01-03T08:46:16.221Z,17.50
2023-01-03T08:48:20.799Z,17.65
2023-01-03T08:50:22.326Z,17.33
2023-01-03T08:52:23.964Z,17.27
2023-01-03T08:54:25.495Z,16.17
2023-01-03T08:56:27.056Z,17.38
2023-01-03T08:58:28.558Z,17.48
2023-01-03T09:00:30.063Z,17.00
2023-01-03T09:02:34.528Z,16.60
2023-01-03T09:04:36.489Z,17.13
2023-01-03T09:06:38.214Z,16.58
2023-01-03T09:08:39.708Z,16.55
2023-01-03T09:10:47.175Z,16.90
2023-01-03T09:12:48.883Z,17.48
2023-01-03T09:14:50.440Z,17.65
2023-01-03T09:16:51.978Z,17.13
2023-01-03T09:18:53.504Z,17.85
2023-01-03T09:20:55.022Z,17.35
2023-01-03T09:22:56.481Z,16.85
2023-01-03T09:24:58.008Z,17.17
2023-01-03T09:27:00.173Z,17.45
2023-01-03T09:29:01.968Z,18.83
2023-01-03T09:31:04.050Z,16.60
2023-01-03T09:33:05.834Z,18.77
2023-01-03T09:35:08.293Z,17.17
2023-01-03T09:37:09.927Z,17.38
2023-01-03T09:39:11.448Z,17.33
2023-01-03T09:41:21.914Z,18.38
2023-01-03T09:43:29.273Z,17.05
2023-01-03T09:45:34.030Z,16.65
2023-01-03T09:47:38.388Z,17.13
2023-01-03T09:49:57.691Z,17.88
2023-01-03T09:52:20.395Z,17.90
2023-01-03T09:54:54.182Z,18.60
2023-01-03T09:57:14.504Z,18.00
2023-01-03T09:59:37.000Z,18.20
2023-01-03T10:02:25.103Z,18.08
2023-01-03T10:04:48.637Z,18.88
2023-01-03T10:07:18.399Z,19.65
2023-01-03T10:09:32.693Z,20.30
2023-01-03T10:12:04.923Z,20.67
2023-01-03T10:14:40.363Z,20.67
2023-01-03T10:16:55.307Z,19.95
2023-01-03T10:19:11.943Z,21.15
2023-01-03T10:21:36.381Z,20.55
2023-01-03T10:23:37.902Z,20.63
2023-01-03T10:25:41.680Z,21.23
2023-01-03T10:27:51.355Z,23.30
2023-01-03T10:29:59.845Z,21.65
2023-01-03T10:32:34.780Z,22.05
2023-01-03T10:34:38.625Z,21.83
2023-01-03T10:36:40.144Z,22.83
2023-01-03T10:38:49.364Z,22.33
2023-01-03T10:40:55.637Z,22.92
2023-01-03T10:42:57.129Z,21.98
2023-01-03T10:45:10.437Z,21.98
2023-01-03T10:47:17.199Z,22.08
2023-01-03T10:49:30.131Z,22.45
2023-01-03T10:51:43.180Z,20.05
2023-01-03T10:53:44.844Z,21.10
2023-01-03T10:55:52.321Z,21.05
2023-01-03T10:57:56.523Z,20.75
2023-01-03T10:59:58.022Z,21.58
2023-01-03T11:02:16.679Z,20.95
2023-01-03T11:04:19.947Z,20.30
2023-01-03T11:06:21.600Z,21.08
2023-01-03T11:08:45.363Z,21.15
2023-01-03T11:11:00.052Z,19.35
2023-01-03T11:13:01.563Z,20.15
2023-01-03T11:15:37.899Z,22.50
2023-01-03T11:17:52.810Z,22.65
2023-01-03T11:19:55.387Z,22.23
2023-01-03T11:22:06.887Z,22.65
2023-01-03T11:24:31.485Z,21.23
2023-01-03T11:26:48.953Z,18.65
2023-01-03T11:29:08.176Z,18.48
2023-01-03T11:31:26.582Z,17.90
2023-01-03T11:33:37.162Z,18.27
2023-01-03T11:35:59.145Z,18.27
2023-01-03T11:38:20.176Z,18.60
2023-01-03T11:40:21.596Z,18.33
2023-01-03T11:42:45.014Z,19.73
2023-01-03T11:45:20.037Z,18.60
2023-01-03T11:47:30.591Z,18.58
2023-01-03T11:50:14.515Z,17.88
2023-01-03T11:52:27.911Z,18.42
2023-01-03T11:54:53.156Z,18.58
2023-01-03T11:56:58.538Z,18.35
2023-01-03T11:59:27.931Z,19.27
2023-01-03T12:02:07.253Z,18.15
2023-01-03T12:04:26.548Z,19.02
2023-01-03T12:07:14.220Z,19.17
2023-01-03T12:09:22.321Z,18.80
2023-01-03T12:11:36.630Z,18.77
2023-01-03T12:13:53.369Z,19.67
2023-01-03T12:16:20.843Z,19.20
2023-01-03T12:18:28.708Z,20.13
2023-01-03T12:20:38.740Z,20.67
2023-01-03T12:22:47.942Z,20.23
2023-01-03T12:25:02.557Z,20.42
2023-01-03T12:27:23.648Z,21.25
2023-01-03T12:31:47.519Z,19.60
2023-01-03T12:33:54.443Z,20.45
2023-01-03T12:36:33.179Z,20.67
2023-01-03T12:38:45.000Z,19.33
2023-01-03T12:40:46.392Z,18.60
2023-01-03T12:43:12.008Z,19.77
2023-01-03T12:45:29.658Z,19.85
2023-01-03T12:47:49.882Z,20.67
2023-01-03T12:50:01.718Z,20.27
2023-01-03T12:52:03.244Z,19.15
2023-01-03T12:54:22.964Z,19.60
2023-01-03T12:56:30.461Z,20.48
2023-01-03T12:58:39.820Z,20.13
2023-01-03T13:00:58.609Z,21.35
2023-01-03T13:03:41.482Z,19.92
2023-01-03T13:05:50.918Z,19.50
2023-01-03T13:08:32.905Z,20.02
2023-01-03T13:10:38.391Z,20.30
2023-01-03T13:12:43.604Z,19.45
2023-01-03T13:15:07.658Z,19.60
2023-01-03T13:17:18.102Z,21.45
2023-01-03T13:19:22.605Z,20.30
2023-01-03T13:21:49.891Z,19.67
2023-01-03T13:23:59.312Z,19.98
2023-01-03T13:26:06.886Z,20.45
2023-01-03T13:28:29.862Z,20.17
2023-01-03T13:30:34.922Z,19.08
2023-01-03T13:33:11.978Z,18.85
2023-01-03T13:35:16.148Z,20.00
2023-01-03T13:37:18.748Z,19.20
2023-01-03T13:39:40.204Z,21.40
2023-01-03T13:41:41.772Z,19.17
2023-01-03T13:43:47.206Z,19.38
2023-01-03T13:45:50.416Z,20.35
2023-01-03T13:47:54.284Z,19.40
2023-01-03T13:49:55.810Z,18.50
2023-01-03T13:51:58.685Z,20.50
2023-01-03T13:54:01.744Z,20.60
2023-01-03T13:56:15.093Z,20.02
2023-01-03T13:58:40.250Z,18.73
2023-01-03T14:00:41.927Z,18.08
2023-01-03T14:03:05.673Z,19.02
2023-01-03T14:05:30.373Z,19.05
2023-01-03T14:07:37.578Z,19.88
2023-01-03T14:10:01.809Z,18.52
2023-01-03T14:12:48.337Z,19.30
2023-01-03T14:14:55.448Z,19.83
2023-01-03T14:16:58.684Z,18.52
2023-01-03T14:19:22.867Z,19.95
2023-01-03T14:21:31.151Z,19.73
2023-01-03T14:23:59.746Z,19.20
2023-01-03T14:26:04.674Z,20.13
2023-01-03T14:28:20.703Z,18.52
2023-01-03T14:30:28.326Z,20.27
2023-01-03T14:32:35.960Z,19.63
2023-01-03T14:34:41.206Z,19.25
2023-01-03T14:36:47.187Z,22.27
2023-01-03T14:38:54.721Z,22.50
2023-01-03T14:41:00.134Z,22.27
2023-01-03T14:43:05.107Z,20.35
2023-01-03T14:45:08.756Z,19.80
2023-01-03T14:47:17.561Z,21.08
2023-01-03T14:49:45.013Z,20.15
2023-01-03T14:51:46.891Z,20.55
2023-01-03T14:53:49.984Z,20.23
2023-01-03T14:55:53.857Z,19.90
2023-01-03T14:57:56.904Z,19.65
2023-01-03T15:00:00.793Z,20.27
2023-01-03T15:02:02.771Z,21.33
2023-01-03T15:04:05.208Z,20.50
2023-01-03T15:06:25.043Z,20.63
2023-01-03T15:08:31.521Z,21.20
2023-01-03T15:10:43.575Z,20.17
2023-01-03T15:12:57.564Z,20.60
2023-01-03T15:15:19.746Z,20.80
2023-01-03T15:17:26.303Z,20.95
2023-01-03T15:19:30.355Z,20.83
2023-01-03T15:21:32.088Z,20.65
2023-01-03T15:23:37.063Z,20.30
2023-01-03T15:25:41.492Z,20.83
2023-01-03T15:27:45.315Z,21.85
2023-01-03T15:29:46.828Z,21.08
2023-01-03T15:31:58.504Z,21.08
2023-01-03T15:34:19.572Z,21.17
2023-01-03T15:36:26.406Z,21.70
2023-01-03T15:38:37.101Z,21.90
2023-01-03T15:40:39.963Z,20.23
2023-01-03T15:43:02.614Z,20.23
2023-01-03T15:45:21.300Z,19.63
2023-01-03T15:49:28.473Z,20.35
2023-01-03T15:51:29.957Z,19.60
2023-01-03T15:53:43.246Z,19.63
2023-01-03T15:55:45.922Z,20.02
2023-01-03T15:57:53.758Z,19.73
2023-01-03T15:59:57.699Z,19.20
2023-01-03T16:01:59.507Z,18.77
2023-01-03T16:04:01.088Z,19.60
2023-01-03T16:06:02.988Z,20.30
2023-01-03T16:08:15.654Z,18.90
2023-01-03T16:10:17.338Z,18.88
2023-01-03T16:12:43.913Z,17.30
2023-01-03T16:14:49.309Z,18.15
2023-01-03T16:16:53.408Z,16.98
2023-01-03T16:18:55.698Z,16.20
2023-01-03T16:20:57.264Z,16.98
2023-01-03T16:23:01.784Z,15.65
2023-01-03T16:25:05.541Z,14.80
2023-01-03T16:27:16.822Z,16.00
2023-01-03T16:29:18.505Z,15.13
2023-01-03T16:31:31.934Z,13.85
2023-01-03T16:33:35.761Z,12.63
2023-01-03T16:35:37.279Z,16.98
2023-01-03T16:37:38.764Z,12.57
2023-01-03T16:39:47.399Z,12.75
2023-01-03T16:42:10.276Z,13.45
2023-01-03T16:44:11.807Z,12.60
2023-01-03T16:46:15.929Z,11.77
2023-01-03T16:48:20.921Z,11.68
2023-01-03T16:50:22.896Z,11.55
2023-01-03T16:52:27.962Z,11.45
2023-01-03T16:54:30.258Z,10.88
2023-01-03T16:56:31.716Z,10.75
2023-01-03T16:58:33.354Z,10.65
2023-01-03T17:00:35.553Z,10.75
2023-01-03T17:02:37.148Z,10.95
2023-01-03T17:04:38.860Z,9.82
2023-01-03T17:06:41.156Z,10.48
2023-01-03T17:08:42.942Z,10.00
2023-01-03T17:10:47.044Z,10.63
2023-01-03T17:12:48.616Z,10.30
2023-01-03T17:14:51.121Z,10.18
2023-01-03T17:16:52.642Z,10.95
2023-01-03T17:18:55.971Z,11.05
2023-01-03T17:21:06.841Z,10.60
2023-01-03T17:23:09.135Z,10.45
2023-01-03T17:25:11.578Z,10.20
2023-01-03T17:27:25.053Z,9.48
2023-01-03T17:29:31.425Z,10.07
2023-01-03T17:31:33.169Z,10.30
2023-01-03T17:33:34.695Z,9.70
2023-01-03T17:35:38.478Z,10.23
2023-01-03T17:38:05.669Z,10.25
2023-01-03T17:40:01.890Z,10.98
2023-01-03T17:42:18.988Z,12.02
2023-01-03T17:44:20.481Z,12.38
2023-01-03T17:46:43.244Z,12.52
2023-01-03T17:49:03.116Z,11.85
2023-01-03T17:51:04.718Z,11.88
2023-01-03T17:53:08.553Z,11.82
2023-01-03T17:55:25.710Z,12.18
2023-01-03T17:57:28.095Z,13.00
2023-01-03T17:59:29.712Z,13.38
2023-01-03T18:01:31.337Z,12.52
2023-01-03T18:03:32.961Z,13.57
2023-01-03T18:05:34.631Z,13.00
2023-01-03T18:07:36.193Z,14.55
2023-01-03T18:09:37.863Z,13.45
2023-01-03T18:11:39.330Z,12.85
2023-01-03T18:13:40.897Z,13.25
2023-01-03T18:15:42.388Z,13.32
2023-01-03T18:17:44.987Z,13.82
2023-01-03T18:19:46.437Z,14.98
2023-01-03T18:21:48.281Z,15.27
2023-01-03T18:24:02.503Z,15.18
2023-01-03T18:26:06.710Z,14.50
2023-01-03T18:28:10.333Z,13.52
2023-01-03T18:30:15.846Z,15.27
2023-01-03T18:32:23.247Z,15.40
2023-01-03T18:34:24.814Z,15.43
2023-01-03T18:36:29.165Z,15.05
2023-01-03T18:38:35.516Z,14.57
2023-01-03T18:40:38.079Z,14.40
2023-01-03T18:42:58.445Z,14.98
2023-01-03T18:44:59.963Z,14.73
2023-01-03T18:47:01.761Z,15.35
2023-01-03T18:49:03.283Z,14.75
2023-01-03T18:51:05.011Z,15.35
2023-01-03T18:53:06.546Z,15.15
2023-01-03T18:55:15.154Z,15.55
2023-01-03T18:57:16.633Z,15.73
2023-01-03T18:59:26.670Z,14.65
2023-01-03T19:01:28.322Z,15.73
2023-01-03T19:03:32.059Z,15.95
2023-01-03T19:05:33.637Z,16.67
2023-01-03T19:07:35.984Z,17.05
2023-01-03T19:09:37.579Z,16.50
2023-01-03T19:11:39.848Z,15.82
2023-01-03T19:13:54.512Z,16.92
2023-01-03T19:15:56.832Z,15.68
2023-01-03T19:17:58.428Z,15.15
2023-01-03T19:19:59.972Z,16.05
2023-01-03T19:22:01.908Z,20.38
2023-01-03T19:24:29.726Z,19.90
2023-01-03T19:26:39.923Z,19.05
2023-01-03T19:28:41.655Z,15.20
2023-01-03T19:30:46.464Z,15.75
2023-01-03T19:32:52.580Z,17.60
2023-01-03T19:34:54.230Z,15.55
2023-01-03T19:36:55.817Z,13.15
2023-01-03T19:38:57.365Z,13.10
2023-01-03T19:40:59.026Z,12.00
2023-01-03T19:43:00.767Z,12.10
2023-01-03T19:45:13.468Z,10.90
2023-01-03T19:47:18.190Z,10.40
2023-01-03T19:49:20.853Z,10.23
2023-01-03T19:51:22.310Z,9.73
2023-01-03T19:53:23.794Z,8.85
2023-01-03T19:55:29.138Z,8.45
2023-01-03T19:57:33.792Z,8.82
2023-01-03T19:59:38.199Z,9.52
2023-01-03T20:02:14.372Z,8.70
2023-01-03T20:04:02.370Z,7.25
2023-01-03T20:06:04.701Z,7.43
2023-01-03T20:08:12.022Z,7.82
2023-01-03T20:10:16.887Z,6.97
2023-01-03T20:12:26.839Z,6.82
2023-01-03T20:14:28.921Z,6.75
2023-01-03T20:16:30.437Z,7.32
2023-01-03T20:18:36.208Z,6.45
2023-01-03T20:20:38.130Z,6.05
2023-01-03T20:25:01.892Z,6.68
2023-01-03T20:27:03.756Z,6.07
2023-01-03T20:29:05.526Z,5.32
2023-01-03T20:31:08.372Z,5.75
2023-01-03T20:33:09.899Z,5.60
2023-01-03T20:36:06.590Z,5.78
2023-01-03T20:37:37.668Z,5.40
2023-01-03T20:39:39.163Z,6.13
2023-01-03T20:41:40.653Z,5.80
2023-01-03T20:43:43.381Z,4.75
2023-01-03T20:45:46.247Z,5.00
2023-01-03T20:47:54.251Z,4.55
2023-01-03T20:49:55.769Z,4.40
2023-01-03T20:51:57.343Z,5.00
2023-01-03T20:53:58.822Z,4.40
2023-01-03T20:56:00.285Z,5.03
2023-01-03T20:58:01.949Z,4.72
2023-01-03T21:00:05.138Z,3.70
2023-01-03T21:02:06.954Z,3.40
2023-01-03T21:04:08.642Z,3.95
2023-01-03T21:06:21.887Z,3.92
2023-01-03T21:08:41.649Z,3.90
2023-01-03T21:10:44.111Z,3.90
2023-01-03T21:12:45.680Z,3.63
2023-01-03T21:14:49.509Z,3.92
2023-01-03T21:16:51.151Z,4.18
2023-01-03T21:18:52.807Z,3.50
2023-01-03T21:20:54.318Z,3.42
2023-01-03T21:22:56.061Z,3.10
2023-01-03T21:24:58.016Z,3.00
2023-01-03T21:26:59.552Z,3.05
2023-01-03T21:29:01.132Z,3.10
2023-01-03T21:31:05.374Z,3.08
2023-01-03T21:33:15.966Z,3.00
2023-01-03T21:35:22.717Z,2.92
2023-01-03T21:37:24.229Z,2.75
2023-01-03T21:39:25.693Z,2.55
2023-01-03T21:41:30.030Z,2.70
2023-01-03T21:43:31.548Z,2.55
2023-01-03T21:45:38.156Z,2.05
2023-01-03T21:47:39.833Z,2.80
2023-01-03T21:49:41.338Z,2.22
2023-01-03T21:51:42.773Z,2.22
2023-01-03T21:53:44.494Z,2.30
2023-01-03T21:55:46.885Z,2.00
2023-01-03T21:57:48.537Z,2.10
2023-01-03T21:59:50.011Z,2.17
2023-01-03T22:02:09.893Z,2.92
2023-01-03T22:04:17.238Z,2.20
2023-01-03T22:06:18.751Z,2.05
2023-01-03T22:08:20.214Z,2.13
2023-01-03T22:10:23.721Z,2.35
2023-01-03T22:12:25.191Z,1.80
2023-01-03T22:14:26.686Z,2.13
2023-01-03T22:16:28.333Z,1.80
2023-01-03T22:18:29.831Z,2.10
2023-01-03T22:20:38.048Z,3.15
2023-01-03T22:24:41.989Z,1.90
2023-01-03T22:26:43.455Z,2.08
2023-01-03T22:28:46.391Z,1.92
2023-01-03T22:30:47.829Z,1.70
2023-01-03T22:32:49.472Z,1.60
2023-01-03T22:34:50.991Z,1.77
2023-01-03T22:36:52.456Z,1.63
2023-01-03T22:38:53.948Z,1.70
2023-01-03T22:40:55.396Z,1.58
2023-01-03T22:42:56.862Z,1.55
2023-01-03T22:44:58.330Z,1.60
2023-01-03T22:46:59.872Z,1.45
2023-01-03T22:49:01.385Z,1.73
2023-01-03T22:51:04.798Z,1.92
2023-01-03T22:53:06.883Z,1.42
2023-01-03T22:55:08.590Z,1.52
2023-01-03T22:57:10.048Z,1.35
2023-01-03T22:59:11.596Z,1.77
2023-01-03T23:01:17.963Z,1.65
2023-01-03T23:03:19.519Z,1.20
2023-01-03T23:05:20.975Z,1.77
2023-01-03T23:07:22.435Z,1.20
2023-01-03T23:09:24.132Z,1.20
2023-01-03T23:11:46.153Z,1.88
2023-01-03T23:13:47.637Z,1.15
2023-01-03T23:15:49.312Z,1.60
2023-01-03T23:17:56.925Z,1.58
2023-01-03T23:19:58.414Z,1.75
2023-01-03T23:21:59.935Z,1.40
2023-01-03T23:24:01.583Z,1.27
2023-01-03T23:26:03.924Z,1.70
2023-01-03T23:28:05.438Z,1.27
2023-01-03T23:30:07.544Z,1.40
2023-01-03T23:32:09.018Z,1.35
2023-01-03T23:34:11.592Z,1.30
2023-01-03T23:36:14.201Z,1.48
2023-01-03T23:38:15.794Z,1.40
2023-01-03T23:40:17.424Z,1.10
2023-01-03T23:42:18.923Z,1.17
2023-01-03T23:44:20.409Z,1.20
2023-01-03T23:46:24.291Z,0.98
2023-01-03T23:48:25.790Z,1.00
2023-01-03T23:50:27.280Z,1.10
2023-01-03T23:52:28.721Z,1.13
2023-01-03T23:54:30.217Z,1.40
2023-01-03T23:56:31.708Z,0.90
2023-01-03T23:58:33.253Z,1.67
